createdAt,value
2018-11-29T00:00:50.543Z,-1.62
2018-11-29T00:03:38.597Z,-1.61
2018-11-29T00:06:07.283Z,-1.63
2018-11-29T00:08:55.266Z,-1.60
2018-11-29T00:11:24.030Z,-1.60
2018-11-29T00:14:12.004Z,-1.62
2018-11-29T00:16:40.681Z,-1.60
2018-11-29T00:19:31.378Z,-1.61
2018-11-29T00:22:00.046Z,-1.62
2018-11-29T00:24:48.056Z,-1.62
2018-11-29T00:27:16.709Z,-1.64
2018-11-29T00:30:05.821Z,-1.65
2018-11-29T00:32:34.517Z,-1.66
2018-11-29T00:35:03.286Z,-1.66
2018-11-29T00:37:51.298Z,-1.70
2018-11-29T00:40:39.587Z,-1.65
2018-11-29T00:43:08.325Z,-1.63
2018-11-29T00:45:58.016Z,-1.55
2018-11-29T00:48:26.678Z,-1.55
2018-11-29T00:50:55.354Z,-1.61
2018-11-29T00:53:43.635Z,-1.58
2018-11-29T00:56:12.318Z,-1.55
2018-11-29T00:58:40.902Z,-1.50
2018-11-29T01:01:09.553Z,-1.46
2018-11-29T01:03:57.493Z,-1.48
2018-11-29T01:06:26.221Z,-1.51
2018-11-29T01:08:55.399Z,-1.54
2018-11-29T01:11:38.758Z,-1.56
2018-11-29T01:14:07.423Z,-1.54
2018-11-29T01:16:36.047Z,-1.52
2018-11-29T01:19:24.039Z,-1.46
2018-11-29T01:21:52.763Z,-1.44
2018-11-29T01:24:21.521Z,-1.47
2018-11-29T01:27:09.530Z,-1.47
2018-11-29T01:29:38.208Z,-1.42
2018-11-29T01:32:26.228Z,-1.39
2018-11-29T01:34:54.888Z,-1.40
2018-11-29T01:37:42.946Z,-1.36
2018-11-29T01:40:34.351Z,-1.36
2018-11-29T01:43:02.982Z,-1.40
2018-11-29T01:45:50.980Z,-1.39
2018-11-29T01:48:19.633Z,-1.37
2018-11-29T01:51:07.608Z,-1.32
2018-11-29T01:53:36.312Z,-1.34
2018-11-29T01:56:05.026Z,-1.35
2018-11-29T01:58:52.987Z,-1.40
2018-11-29T02:01:21.616Z,-1.35
2018-11-29T02:04:09.586Z,-1.30
2018-11-29T02:06:38.365Z,-1.30
2018-11-29T02:09:09.136Z,-1.29
2018-11-29T02:11:57.133Z,-1.26
2018-11-29T02:14:25.804Z,-1.30
2018-11-29T02:17:13.775Z,-1.33
2018-11-29T02:19:42.531Z,-1.34
2018-11-29T02:22:30.474Z,-1.35
2018-11-29T02:24:59.180Z,-1.33
2018-11-29T02:27:27.801Z,-1.34
2018-11-29T02:30:35.331Z,-1.31
2018-11-29T02:33:23.018Z,-1.33
2018-11-29T02:35:51.705Z,-1.30
2018-11-29T02:38:39.694Z,-1.31
2018-11-29T02:41:08.431Z,-1.27
2018-11-29T02:43:37.052Z,-1.22
2018-11-29T02:46:25.023Z,-1.24
2018-11-29T02:48:53.639Z,-1.26
2018-11-29T02:51:41.638Z,-1.26
2018-11-29T02:54:10.317Z,-1.25
2018-11-29T02:56:58.302Z,-1.23
2018-11-29T02:59:27.012Z,-1.16
2018-11-29T03:02:14.968Z,-1.07
2018-11-29T03:04:43.670Z,-1.09
2018-11-29T03:07:31.648Z,-1.10
2018-11-29T03:10:00.358Z,-1.14
2018-11-29T03:12:48.341Z,-1.18
2018-11-29T03:15:17.017Z,-1.17
2018-11-29T03:18:05.271Z,-1.15
2018-11-29T03:20:33.947Z,-1.18
2018-11-29T03:23:02.701Z,-1.20
2018-11-29T03:25:50.731Z,-1.21
2018-11-29T03:28:19.435Z,-1.21
2018-11-29T03:30:48.132Z,-1.13
2018-11-29T03:33:36.120Z,-1.07
2018-11-29T03:36:04.811Z,-1.04
2018-11-29T03:38:52.812Z,-1.02
2018-11-29T03:41:21.491Z,-1.01
2018-11-29T03:43:50.237Z,-1.01
2018-11-29T03:46:38.206Z,-0.96
2018-11-29T03:49:07.047Z,-0.90
2018-11-29T03:51:35.759Z,-0.85
2018-11-29T03:54:23.766Z,-0.80
2018-11-29T03:56:52.449Z,-0.79
2018-11-29T03:59:21.176Z,-0.83
2018-11-29T04:02:09.157Z,-0.86
2018-11-29T04:04:37.814Z,-0.80
2018-11-29T04:07:07.089Z,-0.73
2018-11-29T04:09:55.042Z,-0.70
2018-11-29T04:12:23.797Z,-0.67
2018-11-29T04:14:52.596Z,-0.65
2018-11-29T04:17:41.355Z,-0.66
2018-11-29T04:20:13.272Z,-0.64
2018-11-29T04:23:01.284Z,-0.68
2018-11-29T04:25:29.961Z,-0.72
2018-11-29T04:28:17.925Z,-0.81
2018-11-29T04:30:46.634Z,-0.89
2018-11-29T04:36:24.808Z,-1.01
2018-11-29T04:39:12.785Z,-1.03
2018-11-29T04:41:41.469Z,-1.07
2018-11-29T04:44:29.456Z,-1.10
2018-11-29T04:46:58.089Z,-1.10
2018-11-29T04:49:26.802Z,-1.09
2018-11-29T04:52:15.072Z,-1.09
2018-11-29T04:54:43.805Z,-1.09
2018-11-29T04:57:12.496Z,-1.10
2018-11-29T05:00:00.460Z,-1.06
2018-11-29T05:02:29.300Z,-1.06
2018-11-29T05:04:58.060Z,-1.09
2018-11-29T05:07:46.018Z,-1.10
2018-11-29T05:10:33.696Z,-1.10
2018-11-29T05:13:04.614Z,-1.13
2018-11-29T05:15:52.603Z,-1.09
2018-11-29T05:18:21.259Z,-1.07
2018-11-29T05:20:52.707Z,-1.12
2018-11-29T05:23:40.983Z,-1.10
2018-11-29T05:26:09.653Z,-1.08
2018-11-29T05:28:57.910Z,-1.02
2018-11-29T05:31:27.643Z,-1.07
2018-11-29T05:33:56.315Z,-1.08
2018-11-29T05:36:44.320Z,-1.10
2018-11-29T05:39:56.397Z,-0.99
2018-11-29T05:45:31.770Z,-1.00
2018-11-29T05:48:02.518Z,-1.04
2018-11-29T05:50:52.858Z,-1.04
2018-11-29T05:53:21.486Z,-1.05
2018-11-29T05:55:50.180Z,-1.05
2018-11-29T05:58:38.202Z,-1.05
2018-11-29T06:01:25.922Z,-1.08
2018-11-29T06:03:54.629Z,-1.09
2018-11-29T06:06:42.582Z,-1.09
2018-11-29T06:09:13.421Z,-1.06
2018-11-29T06:12:01.382Z,-1.06
2018-11-29T06:14:32.235Z,-1.06
2018-11-29T06:17:00.968Z,-1.08
2018-11-29T06:19:49.017Z,-1.10
2018-11-29T06:22:17.690Z,-1.07
2018-11-29T06:25:24.964Z,-1.06
2018-11-29T06:27:53.674Z,-1.04
2018-11-29T06:30:22.815Z,-1.06
2018-11-29T06:33:11.105Z,-1.04
2018-11-29T06:35:39.865Z,-0.98
2018-11-29T06:38:13.697Z,-0.94
2018-11-29T06:40:42.316Z,-0.95
2018-11-29T06:43:30.301Z,-0.92
2018-11-29T06:45:59.019Z,-0.84
2018-11-29T06:48:37.917Z,-0.76
2018-11-29T06:54:04.332Z,-0.63
2018-11-29T06:56:45.679Z,-0.58
2018-11-29T06:59:14.369Z,-0.58
2018-11-29T07:01:42.950Z,-0.53
2018-11-29T07:04:30.947Z,-0.52
2018-11-29T07:07:18.837Z,-0.51
2018-11-29T07:09:47.553Z,-0.48
2018-11-29T07:12:38.273Z,-0.40
2018-11-29T07:15:11.905Z,-0.37
2018-11-29T07:17:41.969Z,-0.35
2018-11-29T07:20:30.176Z,-0.33
2018-11-29T07:22:58.876Z,-0.25
2018-11-29T07:25:27.492Z,-0.23
2018-11-29T07:27:56.094Z,-0.27
2018-11-29T07:30:44.104Z,-0.31
2018-11-29T07:33:12.741Z,-0.34
2018-11-29T07:35:41.492Z,-0.35
2018-11-29T07:38:29.435Z,-0.35
2018-11-29T07:41:17.137Z,-0.33
2018-11-29T07:43:45.861Z,-0.28
2018-11-29T07:46:33.811Z,-0.29
2018-11-29T07:49:02.505Z,-0.24
2018-11-29T07:51:31.226Z,-0.23
2018-11-29T07:54:19.192Z,-0.21
2018-11-29T07:56:47.841Z,-0.18
2018-11-29T07:59:16.612Z,-0.11
2018-11-29T08:02:04.632Z,-0.06
2018-11-29T08:04:33.352Z,-0.02
2018-11-29T08:07:01.931Z,0.06
2018-11-29T08:10:08.903Z,0.11
2018-11-29T08:12:42.864Z,0.19
2018-11-29T08:15:31.147Z,0.30
2018-11-29T08:17:59.791Z,0.41
2018-11-29T08:20:30.539Z,0.53
2018-11-29T08:23:21.100Z,0.63
2018-11-29T08:25:49.815Z,0.68
2018-11-29T08:28:18.428Z,0.78
2018-11-29T08:31:08.632Z,0.88
2018-11-29T08:33:39.674Z,0.94
2018-11-29T08:36:08.341Z,1.02
2018-11-29T08:38:56.336Z,1.09
2018-11-29T08:41:44.318Z,1.14
2018-11-29T08:47:12.282Z,1.37
2018-11-29T08:49:40.962Z,1.49
2018-11-29T08:52:29.290Z,1.65
2018-11-29T08:55:00.113Z,1.73
2018-11-29T08:57:28.753Z,1.75
2018-11-29T08:59:59.797Z,1.81
2018-11-29T09:02:48.199Z,1.91
2018-11-29T09:05:16.860Z,1.98
2018-11-29T09:07:46.411Z,2.02
2018-11-29T09:10:34.384Z,2.08
2018-11-29T09:13:03.059Z,2.10
2018-11-29T09:15:50.998Z,2.16
2018-11-29T09:18:22.199Z,2.21
2018-11-29T09:20:50.824Z,2.29
2018-11-29T09:23:19.479Z,2.37
2018-11-29T09:26:07.932Z,2.42
2018-11-29T09:28:36.714Z,2.48
2018-11-29T09:31:24.935Z,2.52
2018-11-29T09:33:57.291Z,2.59
2018-11-29T09:36:44.249Z,2.65
2018-11-29T09:39:33.844Z,2.68
2018-11-29T09:42:03.054Z,2.81
2018-11-29T09:47:38.581Z,3.02
2018-11-29T09:50:28.351Z,3.22
2018-11-29T09:52:59.313Z,3.36
2018-11-29T09:55:30.130Z,3.41
2018-11-29T09:57:58.798Z,3.45
2018-11-29T10:01:06.316Z,3.50
2018-11-29T10:10:00.939Z,3.85
2018-11-29T10:12:29.638Z,3.88
2018-11-29T10:14:58.259Z,3.82
2018-11-29T10:17:46.505Z,3.72
2018-11-29T10:20:15.162Z,3.60
2018-11-29T10:25:45.508Z,3.96
2018-11-29T10:28:32.080Z,4.07
2018-11-29T10:31:03.130Z,4.32
2018-11-29T10:33:53.600Z,4.53
2018-11-29T10:36:22.235Z,4.62
2018-11-29T10:38:50.928Z,4.82
2018-11-29T10:41:19.561Z,5.04
2018-11-29T10:44:10.288Z,5.17
2018-11-29T10:46:38.903Z,5.24
2018-11-29T10:49:10.191Z,5.31
2018-11-29T10:51:58.442Z,5.38
2018-11-29T10:54:29.597Z,5.36
2018-11-29T10:56:58.235Z,5.43
2018-11-29T10:59:46.200Z,5.36
2018-11-29T11:02:31.029Z,5.40
2018-11-29T11:05:02.846Z,5.46
2018-11-29T11:07:51.137Z,5.57
2018-11-29T11:10:20.962Z,5.54
2018-11-29T11:12:48.579Z,5.64
2018-11-29T11:15:17.225Z,5.71
2018-11-29T11:18:25.016Z,5.67
2018-11-29T11:21:12.948Z,5.72
2018-11-29T11:23:41.666Z,5.79
2018-11-29T11:26:29.655Z,5.77
2018-11-29T11:28:58.328Z,5.89
2018-11-29T11:31:31.021Z,5.94
2018-11-29T11:34:15.486Z,5.86
2018-11-29T11:36:49.003Z,5.98
2018-11-29T11:39:17.815Z,5.96
2018-11-29T11:41:46.424Z,5.99
2018-11-29T11:44:34.409Z,6.08
2018-11-29T11:47:09.137Z,6.06
2018-11-29T11:49:31.689Z,5.92
2018-11-29T11:52:22.407Z,5.91
2018-11-29T11:54:51.080Z,5.96
2018-11-29T11:57:19.831Z,5.80
2018-11-29T12:00:46.045Z,5.82
2018-11-29T12:03:15.956Z,5.77
2018-11-29T12:06:03.963Z,5.50
2018-11-29T12:08:32.621Z,5.38
2018-11-29T12:11:01.247Z,5.41
2018-11-29T12:13:53.306Z,5.32
2018-11-29T12:16:21.998Z,5.29
2018-11-29T12:18:52.598Z,5.20
2018-11-29T12:21:21.262Z,5.17
2018-11-29T12:24:09.553Z,5.20
2018-11-29T12:26:38.244Z,5.19
2018-11-29T12:29:09.689Z,5.18
2018-11-29T12:31:38.321Z,5.19
2018-11-29T12:34:25.962Z,5.27
2018-11-29T12:36:54.666Z,5.25
2018-11-29T12:40:01.939Z,5.27
2018-11-29T12:42:33.196Z,5.22
2018-11-29T12:45:10.329Z,5.07
2018-11-29T12:47:39.148Z,4.99
2018-11-29T12:50:17.936Z,4.99
2018-11-29T12:52:48.932Z,4.98
2018-11-29T12:55:20.970Z,4.92
2018-11-29T12:58:09.052Z,4.83
2018-11-29T13:00:37.798Z,4.77
2018-11-29T13:03:26.084Z,4.72
2018-11-29T13:08:42.625Z,4.49
2018-11-29T13:11:33.104Z,4.40
2018-11-29T13:14:21.223Z,4.33
2018-11-29T13:16:49.734Z,4.28
2018-11-29T13:19:37.739Z,4.24
2018-11-29T13:22:09.223Z,4.19
2018-11-29T13:24:43.619Z,4.12
2018-11-29T13:27:35.868Z,4.05
2018-11-29T13:30:02.794Z,3.97
2018-11-29T13:32:33.333Z,3.93
2018-11-29T13:35:24.991Z,3.80
2018-11-29T13:38:17.627Z,3.75
2018-11-29T13:41:10.333Z,3.66
2018-11-29T13:47:04.124Z,3.59
2018-11-29T13:49:32.854Z,3.57
2018-11-29T13:52:03.158Z,3.52
2018-11-29T13:55:08.973Z,3.49
2018-11-29T13:57:57.181Z,3.44
2018-11-29T14:00:25.838Z,3.35
2018-11-29T14:03:14.693Z,3.35
2018-11-29T14:05:43.386Z,3.38
2018-11-29T14:08:12.109Z,3.32
2018-11-29T14:10:45.440Z,3.29
2018-11-29T14:13:30.257Z,3.28
2018-11-29T14:16:05.009Z,3.23
2018-11-29T14:18:27.585Z,3.19
2018-11-29T14:20:56.292Z,3.21
2018-11-29T14:23:46.174Z,3.16
2018-11-29T14:26:29.431Z,3.15
2018-11-29T14:28:58.235Z,3.14
2018-11-29T14:31:46.170Z,3.13
2018-11-29T14:34:16.467Z,3.07
2018-11-29T14:36:45.114Z,3.04
2018-11-29T14:39:45.172Z,2.99
2018-11-29T14:42:11.777Z,2.92
2018-11-29T14:44:40.413Z,2.93
2018-11-29T14:47:28.660Z,2.92
2018-11-29T14:53:27.413Z,2.78
2018-11-29T14:56:15.375Z,2.69
2018-11-29T14:58:47.075Z,2.64
2018-11-29T15:01:15.756Z,2.59
2018-11-29T15:04:05.386Z,2.52
2018-11-29T15:06:53.982Z,2.49
2018-11-29T15:09:22.617Z,2.37
2018-11-29T15:11:51.580Z,2.27
2018-11-29T15:14:20.193Z,2.24
2018-11-29T15:16:48.856Z,2.23
2018-11-29T15:19:19.935Z,2.16
2018-11-29T15:21:48.618Z,2.17
2018-11-29T15:24:20.190Z,2.10
2018-11-29T15:27:36.621Z,2.00
2018-11-29T15:30:24.600Z,1.96
2018-11-29T15:32:55.806Z,1.95
2018-11-29T15:41:29.103Z,1.94
2018-11-29T15:44:17.349Z,1.91
2018-11-29T15:46:46.017Z,1.85
2018-11-29T15:49:19.730Z,1.84
2018-11-29T15:51:48.410Z,1.82
2018-11-29T15:54:36.658Z,1.78
2018-11-29T15:57:23.277Z,1.74
2018-11-29T16:00:17.523Z,1.70
2018-11-29T16:03:05.959Z,1.71
2018-11-29T16:05:53.927Z,1.70
2018-11-29T16:08:22.634Z,1.61
2018-11-29T16:10:51.313Z,1.54
2018-11-29T16:13:45.253Z,1.49
2018-11-29T16:16:13.953Z,1.46
2018-11-29T16:18:47.304Z,1.42
2018-11-29T16:21:16.264Z,1.35
2018-11-29T16:23:44.845Z,1.29
2018-11-29T16:26:13.544Z,1.24
2018-11-29T16:28:46.998Z,1.24
2018-11-29T16:31:52.443Z,1.22
2018-11-29T16:34:23.908Z,1.20
2018-11-29T16:40:26.698Z,1.25
2018-11-29T16:43:00.269Z,1.30
2018-11-29T16:45:32.628Z,1.29
2018-11-29T16:48:15.598Z,1.28
2018-11-29T16:51:04.384Z,1.32
2018-11-29T16:53:31.905Z,1.33
2018-11-29T16:56:03.008Z,1.37
2018-11-29T16:58:53.055Z,1.39
2018-11-29T17:07:03.118Z,1.34
2018-11-29T17:10:10.158Z,1.32
2018-11-29T17:12:58.139Z,1.30
2018-11-29T17:15:48.649Z,1.27
2018-11-29T17:18:17.333Z,1.29
2018-11-29T17:21:07.034Z,1.25
2018-11-29T17:23:35.786Z,1.25
2018-11-29T17:29:07.982Z,1.27
2018-11-29T17:31:36.689Z,1.27
2018-11-29T17:34:09.101Z,1.24
2018-11-29T17:36:57.371Z,1.25
2018-11-29T17:39:27.343Z,1.23
2018-11-29T17:42:16.511Z,1.19
2018-11-29T17:44:45.131Z,1.23
2018-11-29T17:47:14.035Z,1.19
2018-11-29T17:49:42.761Z,1.17
2018-11-29T17:55:37.684Z,1.12
2018-11-29T17:58:09.075Z,1.15
2018-11-29T18:00:57.387Z,1.15
2018-11-29T18:09:15.616Z,1.23
2018-11-29T18:11:44.289Z,1.27
2018-11-29T18:14:42.698Z,1.26
2018-11-29T18:17:49.940Z,1.27
2018-11-29T18:20:18.633Z,1.25
2018-11-29T18:23:26.164Z,1.24
2018-11-29T18:26:33.089Z,1.31
2018-11-29T18:29:01.982Z,1.31
2018-11-29T18:32:01.133Z,1.28
2018-11-29T18:37:38.122Z,1.27
2018-11-29T18:40:26.089Z,1.28
2018-11-29T18:43:16.138Z,1.26
2018-11-29T18:45:45.999Z,1.28
2018-11-29T18:48:34.185Z,1.29
2018-11-29T18:51:05.122Z,1.34
2018-11-29T18:53:38.809Z,1.31
2018-11-29T18:56:06.450Z,1.28
2018-11-29T18:58:57.928Z,1.27
2018-11-29T19:01:26.593Z,1.26
2018-11-29T19:03:55.283Z,1.22
2018-11-29T19:06:43.496Z,1.23
2018-11-29T19:09:12.556Z,1.22
2018-11-29T19:12:00.839Z,1.22
2018-11-29T19:14:36.552Z,1.20
2018-11-29T19:20:06.202Z,1.18
2018-11-29T19:22:38.000Z,1.18
2018-11-29T19:25:28.276Z,1.19
2018-11-29T19:28:15.924Z,1.20
2018-11-29T19:31:02.817Z,1.20
2018-11-29T19:36:58.811Z,1.21
2018-11-29T19:39:30.500Z,1.20
2018-11-29T19:45:27.072Z,1.18
2018-11-29T19:48:14.686Z,1.20
2018-11-29T19:50:44.093Z,1.21
2018-11-29T19:53:37.129Z,1.18
2018-11-29T19:56:27.645Z,1.23
2018-11-29T19:58:55.621Z,1.24
2018-11-29T20:02:05.633Z,1.30
2018-11-29T20:04:34.315Z,1.29
2018-11-29T20:07:02.996Z,1.30
2018-11-29T20:09:53.756Z,1.31
2018-11-29T20:12:41.786Z,1.31
2018-11-29T20:15:49.314Z,1.29
2018-11-29T20:18:17.969Z,1.26
2018-11-29T20:21:06.171Z,1.22
2018-11-29T20:23:34.823Z,1.23
2018-11-29T20:26:03.535Z,1.23
2018-11-29T20:28:34.827Z,1.22
2018-11-29T20:34:10.831Z,1.22
2018-11-29T20:36:41.311Z,1.25
2018-11-29T20:39:32.252Z,1.25
2018-11-29T20:42:21.376Z,1.26
2018-11-29T20:44:48.533Z,1.24
2018-11-29T20:47:32.133Z,1.29
2018-11-29T20:50:00.806Z,1.32
2018-11-29T20:52:29.470Z,1.28
2018-11-29T20:55:37.694Z,1.27
2018-11-29T20:58:29.260Z,1.31
2018-11-29T21:00:59.062Z,1.33
2018-11-29T21:03:47.325Z,1.31
2018-11-29T21:06:16.036Z,1.30
2018-11-29T21:08:47.112Z,1.31
2018-11-29T21:11:35.072Z,1.32
2018-11-29T21:14:03.768Z,1.35
2018-11-29T21:16:32.389Z,1.42
2018-11-29T21:19:01.077Z,1.44
2018-11-29T21:21:51.146Z,1.44
2018-11-29T21:24:19.855Z,1.42
2018-11-29T21:26:52.072Z,1.42
2018-11-29T21:29:40.334Z,1.43
2018-11-29T21:32:09.054Z,1.41
2018-11-29T21:34:40.211Z,1.43
2018-11-29T21:37:08.832Z,1.38
2018-11-29T21:39:57.132Z,1.32
2018-11-29T21:42:27.284Z,1.31
2018-11-29T21:44:57.184Z,1.25
2018-11-29T21:47:25.890Z,1.23
2018-11-29T21:50:21.447Z,1.17
2018-11-29T21:52:50.135Z,1.14
2018-11-29T21:55:18.756Z,1.14
2018-11-29T21:58:26.267Z,1.13
2018-11-29T22:00:55.535Z,1.13
2018-11-29T22:03:46.150Z,1.08
2018-11-29T22:06:17.049Z,1.09
2018-11-29T22:08:45.636Z,1.10
2018-11-29T22:11:33.881Z,1.10
2018-11-29T22:14:05.045Z,1.11
2018-11-29T22:16:53.285Z,1.14
2018-11-29T22:19:40.935Z,1.23
2018-11-29T22:22:11.839Z,1.41
2018-11-29T22:25:02.555Z,1.47
2018-11-29T22:27:31.227Z,1.47
2018-11-29T22:29:59.909Z,1.49
2018-11-29T22:32:48.171Z,1.53
2018-11-29T22:35:19.553Z,1.60
2018-11-29T22:37:48.185Z,1.73
2018-11-29T22:40:16.856Z,1.61
2018-11-29T22:43:24.389Z,1.58
2018-11-29T22:45:53.053Z,1.55
2018-11-29T22:48:21.709Z,1.49
2018-11-29T22:50:54.836Z,1.49
2018-11-29T22:53:31.991Z,1.48
2018-11-29T22:56:30.259Z,1.43
2018-11-29T22:59:17.945Z,1.33
2018-11-29T23:01:46.580Z,1.14
2018-11-29T23:04:34.626Z,0.98
2018-11-29T23:07:05.651Z,0.81
2018-11-29T23:09:34.311Z,0.70
2018-11-29T23:12:41.561Z,0.59
2018-11-29T23:15:11.439Z,0.49
2018-11-29T23:17:40.145Z,0.43
2018-11-29T23:20:28.412Z,0.28
2018-11-29T23:22:57.152Z,0.17
2018-11-29T23:25:25.873Z,0.10
2018-11-29T23:27:54.568Z,0.04
2018-11-29T23:30:42.871Z,-0.04
2018-11-29T23:33:14.467Z,-0.03
2018-11-29T23:35:45.657Z,-0.06
2018-11-29T23:38:14.337Z,-0.04
2018-11-29T23:41:02.576Z,-0.02
2018-11-29T23:43:31.292Z,0.02
2018-11-29T23:45:59.906Z,0.00
2018-11-29T23:48:48.190Z,0.00
2018-11-29T23:54:04.579Z,-0.04
2018-11-29T23:56:52.599Z,-0.04
2018-11-29T23:59:21.423Z,-0.02
